Latest Coastal Weather Observations for Norfolk Island

IDN60701

Issued at 10:11 pm EDT Sunday 26 March 2017 (issued every 10 minutes, with the page automatically refreshed every 10 minutes)

About coastal observations | Map of coastal stations | Coastal observations for NSW | Marine services | Other Formats
Station Details ID: 200288 Name: NORFOLK ISLAND AERO Lat: -29.04 Lon: 167.94 Height: 111.73 m
Data from the previous 72 hours. | See also: Recent months at Norfolk Island
Date/Time
EDT
Temp
°C
Wind Pressure Rain since
9am
mm
Weather Cloud Vis
km
Sea
Height
m
Swell
Dir  Spd
kts
Gust
kts
hPa Trend Height
m
Period
s
Dir
26/10:00pm 19.7 W 4 5 1013.9 - 0.4 - Partly cloudy 10 - - - -
26/09:36pm 20.0 WSW 5 6 1013.8 - 0.4 - Partly cloudy 10 - - - -
26/09:30pm 20.1 WSW 6 8 1013.8 - 0.4 - Partly cloudy 10 - - - -
26/09:20pm 20.2 SW 2 8 1013.7 - 0.4 - Partly cloudy 6 - - - -
26/09:00pm 20.1 CALM 0 1 1013.4 - 0.0 - Cloudy 10 - - - -
26/08:30pm 20.8 SSW 4 5 1013.3 - 0.0 - Partly cloudy 10 - - - -
26/08:03pm 21.1 SW 4 6 1013.2 - 0.0 - Partly cloudy 10 - - - -
26/08:00pm 21.1 SW 4 6 1013.1 - 0.0 - Partly cloudy 10 - - - -
26/07:46pm 21.3 SSW 5 6 1013.1 - 0.0 - Partly cloudy 10 - - - -
26/07:42pm 21.3 SSW 5 6 1013.0 - 0.0 - Partly cloudy 10 - - - -
26/07:30pm 21.4 SSW 5 6 1012.8 - 0.0 - Partly cloudy 10 - - - -
26/07:00pm 21.1 SSW 5 7 1012.6 - 0.0 - Partly cloudy 10 - - - -
26/06:30pm 21.1 SSW 7 8 1012.4 - 0.0 - Partly cloudy 10 - - - -
26/06:00pm 21.1 SSW 6 7 1012.1 - 0.0 - Cloudy 10 - - - -
26/05:30pm 21.3 SSW 6 8 1011.9 - 0.0 - - 10 - - - -
26/05:00pm 21.6 SSW 8 11 1011.8 - 0.0 - Partly cloudy 10 - - - -
26/04:55pm 21.7 SSW 9 12 1011.7 - 0.0 - Partly cloudy 10 - - - -
26/04:42pm 21.7 SSW 9 14 1011.6 - 0.0 - Partly cloudy 10 - - - -
26/04:30pm 21.9 SSW 9 12 1011.8 - 0.0 - Partly cloudy 10 - - - -
26/04:00pm 22.9 SW 10 14 1011.8 - 0.0 - - 10 - - - -
26/03:49pm 23.1 SW 8 12 1011.9 - 0.0 - Partly cloudy 10 - - - -
26/03:30pm 22.9 SW 10 13 1012.0 - 0.0 - Partly cloudy 10 - - - -
26/03:27pm 22.9 SW 10 13 1011.9 - 0.0 - Partly cloudy 10 - - - -
26/03:00pm 22.7 SW 12 16 1012.1 - 0.0 - Cloudy 10 - - - -
26/02:30pm 22.6 SW 11 16 1012.1 - 0.0 - Partly cloudy 10 - - - -
26/02:00pm 23.9 SW 11 15 1012.3 - 0.0 - Partly cloudy 10 - - - -
26/01:30pm 24.2 SW 11 16 1012.4 - 0.0 - - 10 - - - -
26/01:00pm 23.6 SW 12 16 1012.7 - 0.0 - Partly cloudy 10 - - - -
26/12:30pm 23.7 SW 11 17 1013.1 - 0.0 - Partly cloudy 10 - - - -
26/12:00pm 23.3 SW 11 15 1013.3 - 0.0 - Mostly cloudy 10 - - - -
26/11:30am 24.1 WSW 11 15 1013.5 - 0.0 - - 10 - - - -
26/11:00am 23.6 WSW 9 12 1013.6 - 0.0 - Partly cloudy 10 - - - -
26/10:30am 23.4 SW 11 16 1013.9 - 0.0 - Partly cloudy 10 - - - -
26/10:00am 23.8 SW 11 17 1014.0 - 0.0 - Partly cloudy 10 - - - -
26/09:30am 22.8 SW 11 15 1013.9 - 0.0 - Partly cloudy 10 - - - -
26/09:00am 23.0 SW 9 15 1013.7 - 8.6 - Mostly cloudy 10 - - - -
26/08:30am 23.4 WSW 10 15 1013.8 - 8.6 - - 10 - - - -
26/08:00am 22.8 WSW 9 14 1013.6 - 8.6 - - 10 - - - -
26/07:30am 22.2 SW 11 15 1013.5 - 8.6 - - 10 - - - -
26/07:00am 21.7 WSW 9 12 1013.4 - 8.6 - - 10 - - - -
26/06:30am 20.9 SW 7 11 1012.9 - 8.6 - - 10 - - - -
26/06:00am 20.6 SW 8 10 1012.5 - 8.6 - - 10 - - - -
26/05:30am 20.6 WSW 8 11 1012.2 - 8.6 - - 10 - - - -
26/05:00am 20.7 WSW 7 8 1012.1 - 8.6 - - 10 - - - -
26/04:30am 20.9 WSW 8 11 1011.9 - 8.6 - - 10 - - - -
26/04:00am 20.8 SW 9 12 1011.9 - 8.6 - Partly cloudy 10 - - - -
26/03:30am 20.6 SW 7 10 1011.9 - 8.6 - Partly cloudy 10 - - - -
26/03:00am 21.0 WSW 9 13 1012.1 - 8.6 - - 10 - - - -
26/02:30am 21.1 WSW 10 14 1012.3 - 8.6 - - 10 - - - -
26/02:00am 21.0 WSW 9 13 1012.4 - 8.6 - Partly cloudy 10 - - - -
26/01:30am 20.9 SW 8 10 1012.9 - 8.6 - Partly cloudy 10 - - - -
26/01:00am 20.8 WSW 7 10 1013.1 - 8.6 - Partly cloudy 10 - - - -
26/12:30am 20.9 WSW 7 10 1013.3 - 8.6 - Partly cloudy 10 - - - -
26/12:00am 20.8 SW 7 10 1013.4 - 8.6 - Mostly cloudy 10 - - - -
 
Date/Time
EDT
Temp
°C
Wind Pressure Rain since
9am
mm
Weather Cloud Vis
km
Sea
Height
m
Swell
Dir  Spd
kts
Gust
kts
hPa Trend Height
m
Period
s
Dir
25/11:30pm 20.9 WSW 5 7 1013.5 - 8.6 - Partly cloudy 10 - - - -
25/11:00pm 21.3 SW 6 8 1013.8 - 8.6 - Partly cloudy 10 - - - -
25/10:31pm 21.2 SW 6 8 1014.0 - 8.6 - Partly cloudy 10 - - - -
25/10:30pm 21.2 SW 6 8 1013.9 - 8.6 - Partly cloudy 10 - - - -
25/10:15pm 21.0 W 5 6 1014.0 - 8.6 - Partly cloudy 10 - - - -
25/10:13pm 20.9 W 5 6 1013.9 - 8.6 - Partly cloudy 10 - - - -
25/10:01pm 21.0 W 5 6 1013.9 - 8.6 - Partly cloudy 10 - - - -
25/10:00pm 21.0 W 5 6 1013.9 - 8.6 - Partly cloudy 10 - - - -
25/09:57pm 21.0 W 5 7 1013.9 - 8.6 - Partly cloudy 10 - - - -
25/09:56pm 21.0 W 5 7 1013.9 - 8.6 - Partly cloudy 10 - - - -
25/09:36pm 20.7 WSW 4 5 1013.8 - 8.2 - Partly cloudy 5 - - - -
25/09:32pm 20.7 W 2 4 1013.8 - 7.6 - Partly cloudy 9 - - - -
25/09:30pm 20.9 W 1 4 1013.8 - 7.6 - Partly cloudy 9 - - - -
25/09:29pm 20.8 W 1 4 1013.8 - 7.6 - Partly cloudy 9 - - - -
25/09:19pm 20.5 CALM 0 0 1013.7 - 7.6 - Partly cloudy 5 - - - -
25/09:00pm 20.6 CALM 0 0 1013.7 - 7.6 - Cloudy 6 - - - -
25/08:55pm 20.8 CALM 0 0 1013.7 - 7.6 - Partly cloudy 5 - - - -
25/08:52pm 20.7 CALM 0 0 1013.7 - 7.6 - Partly cloudy 6 - - - -
25/08:30pm 20.8 W 1 4 1013.6 - 7.6 - Partly cloudy 10 - - - -
25/08:00pm 21.2 W 5 6 1013.4 - 7.6 - Cloudy 10 - - - -
25/07:30pm 20.9 W 6 8 1012.9 - 7.6 - Partly cloudy 9 - - - -
25/07:00pm 20.7 WSW 6 8 1012.5 - 7.6 - Partly cloudy 10 - - - -
25/06:37pm 20.6 WSW 7 11 1012.3 - 7.6 - Partly cloudy 10 - - - -
25/06:30pm 20.7 WSW 8 11 1012.3 - 7.6 - Partly cloudy 10 - - - -
25/06:18pm 20.7 W 6 9 1012.5 - 7.6 - Partly cloudy 8 - - - -
25/06:00pm 20.7 W 11 17 1012.5 - 7.4 Showers Cloudy 5 - - - -
25/05:32pm 21.2 W 7 11 1012.4 - 5.6 - Partly cloudy 6 - - - -
25/05:30pm 21.2 W 6 10 1012.4 - 5.4 - Partly cloudy 9 - - - -
25/05:26pm 21.3 WNW 6 8 1012.4 - 5.0 - Partly cloudy 10 - - - -
25/05:00pm 21.1 WNW 8 14 1012.0 - 5.0 - Partly cloudy 10 - - - -
25/04:36pm 20.8 W 11 16 1011.4 - 5.0 - Partly cloudy 10 - - - -
25/04:30pm 20.9 W 10 16 1011.6 - 4.8 - Partly cloudy 10 - - - -
25/04:14pm 20.4 WNW 9 19 1012.0 - 3.8 - Partly cloudy 6 - - - -
25/04:03pm 20.6 W 7 13 1012.0 - 3.0 - Partly cloudy 10 - - - -
25/04:00pm 20.8 WNW 6 13 1012.0 - 3.0 - Partly cloudy 10 - - - -
25/03:38pm 21.0 NW 7 13 1012.0 - 2.2 - - 6 - - - -
25/03:30pm 21.2 WNW 8 15 1012.1 - 1.6 - Partly cloudy 8 - - - -
25/03:00pm 21.6 NNW 7 11 1011.9 - 1.0 Rain Cloudy 10 - - - -
25/02:37pm 21.6 WNW 8 15 1012.1 - 1.0 - Partly cloudy 10 - - - -
25/02:30pm 21.7 WNW 7 15 1012.2 - 1.0 - Partly cloudy 10 - - - -
25/02:16pm 21.4 WNW 9 17 1012.5 - 0.2 - Partly cloudy 6 - - - -
25/02:00pm 23.9 NW 10 18 1012.6 - 0.0 - Partly cloudy 10 - - - -
25/01:30pm 24.5 NNW 11 17 1013.0 - 0.0 - Partly cloudy 10 - - - -
25/01:00pm 24.8 NNW 9 17 1013.1 - 0.0 - Partly cloudy 10 - - - -
25/12:30pm 23.8 NW 8 15 1013.4 - 0.0 - Partly cloudy 10 - - - -
25/12:00pm 23.5 NNW 8 14 1013.5 - 0.0 - Mostly cloudy 10 - - - -
25/11:30am 23.1 NW 9 15 1013.8 - 0.0 - Partly cloudy 10 - - - -
25/11:00am 23.0 NW 8 15 1014.2 - 0.0 - Partly cloudy 10 - - - -
25/10:30am 23.3 NW 8 15 1014.3 - 0.0 - Partly cloudy 10 - - - -
25/10:00am 23.3 NNW 8 15 1014.2 - 0.0 - - 10 - - - -
25/09:30am 23.1 NNW 7 13 1014.2 - 0.0 - - 10 - - - -
25/09:00am 23.1 NW 7 14 1014.3 - 0.0 - Mostly cloudy 10 - - - -
25/08:30am 23.2 NNW 7 12 1014.3 - 0.0 - - 10 - - - -
25/08:00am 22.7 WNW 7 14 1014.3 - 0.0 - Partly cloudy 10 - - - -
25/07:30am 22.4 WNW 7 13 1014.4 - 0.0 - Partly cloudy 10 - - - -
25/07:00am 22.2 WNW 6 10 1014.5 - 0.0 - Partly cloudy 10 - - - -
25/06:30am 21.8 NW 6 10 1014.1 - 0.0 - - 10 - - - -
25/06:00am 21.8 NNW 5 8 1013.6 - 0.0 - Mostly cloudy 10 - - - -
25/05:30am 21.6 NW 5 10 1013.7 - 0.0 - Partly cloudy 10 - - - -
25/05:00am 21.6 N 6 11 1013.5 - 0.0 - - 10 - - - -
25/04:30am 21.6 N 7 13 1013.5 - 0.0 - Partly cloudy 10 - - - -
25/04:00am 21.8 NNW 6 9 1013.8 - 0.0 - Partly cloudy 10 - - - -
25/03:30am 21.7 NNW 6 9 1014.1 - 0.0 - Partly cloudy 10 - - - -
25/03:00am 21.8 NNW 6 9 1014.3 - 0.0 - Cloudy 10 - - - -
25/02:30am 21.7 NNW 5 10 1014.4 - 0.0 - Partly cloudy 10 - - - -
25/02:00am 21.3 NW 5 9 1014.7 - 0.0 - Partly cloudy 10 - - - -
25/01:30am 21.4 NW 6 10 1014.9 - 0.0 - Partly cloudy 10 - - - -
25/01:00am 21.5 NNW 5 8 1015.2 - 0.0 - Partly cloudy 10 - - - -
25/12:30am 21.3 NW 5 8 1015.6 - 0.0 - - 10 - - - -
25/12:00am 21.6 WNW 5 10 1015.6 - 0.0 Drizzle Cloudy 10 - - - -
 
Date/Time
EDT
Temp
°C
Wind Pressure Rain since
9am
mm
Weather Cloud Vis
km
Sea
Height
m
Swell
Dir  Spd
kts
Gust
kts
hPa Trend Height
m
Period
s
Dir
24/11:30pm 21.9 NW 5 10 1015.9 - 0.0 - Partly cloudy 10 - - - -
24/11:00pm 21.8 NNW 6 10 1016.2 - 0.0 - Cloudy 10 - - - -
24/10:30pm 21.9 N 6 9 1016.3 - 0.0 - Partly cloudy 10 - - - -
24/10:00pm 21.5 N 5 10 1016.5 - 0.0 - Partly cloudy 10 - - - -
24/09:30pm 21.3 N 5 8 1016.5 - 0.0 - Partly cloudy 10 - - - -
24/09:00pm 21.3 N 6 8 1016.4 - 0.0 - - 10 - - - -
24/08:30pm 21.6 NNE 6 9 1016.2 - 0.0 - Cloudy 10 - - - -
24/08:00pm 21.2 NNE 6 8 1016.1 - 0.0 - Partly cloudy 10 - - - -
24/07:30pm 21.2 NNE 5 7 1015.9 - 0.0 - Partly cloudy 10 - - - -
24/07:00pm 21.0 N 3 7 1015.8 - 0.0 - - 10 - - - -
24/06:30pm 21.2 NNE 5 7 1015.7 - 0.0 - - 10 - - - -
24/06:00pm 21.5 NNE 5 7 1015.5 - 0.0 - - 10 - - - -
24/05:30pm 22.0 NW 3 7 1015.6 - 0.0 - - 10 - - - -
24/05:00pm 22.6 WNW 5 7 1015.6 - 0.0 - Partly cloudy 10 - - - -
24/04:30pm 23.4 W 7 10 1015.8 - 0.0 - - 10 - - - -
24/04:00pm 23.1 W 7 11 1015.6 - 0.0 - Mostly clear 10 - - - -
24/03:30pm 23.5 W 8 12 1015.6 - 0.0 - Mostly clear 10 - - - -
24/03:00pm 24.1 WNW 8 12 1015.8 - 0.0 - Mostly clear 10 - - - -
24/02:30pm 23.9 W 9 12 1015.9 - 0.0 - Mostly clear 10 - - - -
24/02:00pm 24.7 N 7 12 1016.0 - 0.0 - Mostly clear 10 - - - -
24/01:30pm 25.0 NNE 8 13 1016.2 - 0.0 - Partly cloudy 10 - - - -
24/01:00pm 24.5 NNE 8 12 1016.6 - 0.0 - Mostly clear 10 - - - -
24/12:30pm 24.3 NNE 8 13 1016.7 - 0.0 - Mostly clear 10 - - - -
24/12:00pm 23.5 NNE 6 9 1017.3 - 0.0 - Mostly cloudy 10 - - - -
24/11:30am 23.8 NE 9 13 1017.6 - 0.0 - Mostly clear 10 - - - -
24/11:00am 24.2 NNE 9 14 1017.9 - 0.0 - Mostly cloudy 10 - - - -
24/10:30am 24.2 NE 9 15 1018.2 - 0.0 - Mostly cloudy 10 - - - -
24/10:00am 23.5 NE 10 15 1018.2 - 0.0 - Cloudy 10 - - - -
24/09:30am 23.6 NE 11 16 1018.6 - 0.0 - Cloudy 10 - - - -
24/09:00am 23.0 NE 9 14 1018.5 - 0.0 - Cloudy 10 - - - -
24/08:30am 22.8 NE 8 10 1018.6 - 0.0 - Mostly clear 10 - - - -
24/08:00am 22.4 NE 7 9 1018.5 - 0.0 - Mostly clear 10 - - - -
24/07:30am 21.7 NE 6 7 1018.3 - 0.0 - Cloudy 10 - - - -
24/07:00am 21.2 NE 5 6 1018.2 - 0.0 - Cloudy 10 - - - -
24/06:30am 21.0 NNE 5 7 1018.0 - 0.0 - Cloudy 10 - - - -
24/06:00am 20.6 NNE 3 6 1018.0 - 0.0 - Cloudy 10 - - - -
24/05:30am 20.5 NE 3 4 1017.8 - 0.0 - Cloudy 10 - - - -
24/05:00am 20.6 NNE 4 6 1017.6 - 0.0 - Cloudy 10 - - - -
24/04:30am 20.6 NNE 2 9 1017.6 - 0.0 - Cloudy 10 - - - -
24/04:00am 20.3 NNE 4 6 1017.5 - 0.0 - Cloudy 10 - - - -
24/03:30am 20.5 NNE 1 4 1017.4 - 0.0 - Cloudy 10 - - - -
24/03:00am 20.4 NNW 2 5 1017.6 - 0.0 - Cloudy 10 - - - -
24/02:30am 20.5 NNE 3 6 1017.8 - 0.0 - Cloudy 10 - - - -
24/02:00am 20.4 NNE 2 4 1018.0 - 0.0 - Cloudy 10 - - - -
24/01:30am 20.4 NNE 5 7 1018.1 - 0.0 - Cloudy 10 - - - -
24/01:00am 20.0 NE 5 6 1018.6 - 0.0 - Partly cloudy 10 - - - -
24/12:30am 20.4 NE 5 7 1019.0 - 0.0 - Cloudy 10 - - - -
24/12:00am 20.1 NE 4 6 1019.4 - 0.0 - Cloudy 10 - - - -
 
Date/Time
EDT
Temp
°C
Wind Pressure Rain since
9am
mm
Weather Cloud Vis
km
Sea
Height
m
Swell
Dir  Spd
kts
Gust
kts
hPa Trend Height
m
Period
s
Dir
23/11:30pm 18.9 CALM 0 0 1019.7 - 0.0 - Cloudy 10 - - - -
23/11:00pm 19.2 NNE 4 5 1019.8 - 0.0 - Partly cloudy 10 - - - -
23/10:30pm 18.2 NE 3 4 1020.1 - 0.0 - Partly cloudy 10 - - - -
23/10:00pm 18.4 ENE 5 7 1020.1 - 0.0 - Partly cloudy 10 - - - -

Other Formats:

Comma delimited format used in spreadsheet applications
http://www.bom.gov.au/fwo/IDN60701/IDN60701.94996.axf

JavaScript Object Notation format (JSON) in row-major order
http://www.bom.gov.au/fwo/IDN60701/IDN60701.94996.json